Latest Coastal Weather Observations for Rundle Island

IDQ60701

Issued at 6:31 am EST Monday 27 March 2017 (issued every 10 minutes, with the page automatically refreshed every 10 minutes)

About coastal observations | Map of coastal stations | Coastal observations for QLD | Marine services | Other Formats
Station Details ID: 039322 Name: RUNDLE ISLAND Lat: -23.53 Lon: 151.28 Height: 19.8 m
Data from the previous 72 hours. | See also: Recent months at Rundle Island
Date/Time
EST
Temp
°C
Wind Pressure Rain since
9am
mm
Weather Cloud Vis
km
Sea
Height
m
Swell
Dir  Spd
kts
Gust
kts
hPa Trend Height
m
Period
s
Dir
27/06:07am 26.9 ESE 26 37 1009.1 - - - - - - - - -
27/06:00am 27.3 ESE 25 28 1009.3 - - - - - - - - -
27/05:30am 27.3 ESE 27 31 1009.1 - - - - - - - - -
27/05:00am 27.1 ESE 25 29 1008.9 - - - - - - - - -
27/04:30am 27.2 ESE 24 29 1008.8 - - - - - - - - -
27/04:00am 27.3 ESE 24 27 1008.8 - - - - - - - - -
27/03:30am 27.3 ESE 23 28 1008.9 - - - - - - - - -
27/03:00am 27.4 ESE 24 28 1009.1 - - - - - - - - -
27/02:30am 27.1 SE 22 26 1009.4 - - - - - - - - -
27/02:00am 26.8 ESE 21 26 1009.7 - - - - - - - - -
27/01:30am 26.1 ESE 25 34 1010.2 - - - - - - - - -
27/01:00am 27.4 SE 25 29 1010.6 - - - - - - - - -
27/12:30am 27.4 ESE 25 29 1010.8 - - - - - - - - -
27/12:00am 27.2 SE 24 29 1011.0 - - - - - - - - -
 
Date/Time
EST
Temp
°C
Wind Pressure Rain since
9am
mm
Weather Cloud Vis
km
Sea
Height
m
Swell
Dir  Spd
kts
Gust
kts
hPa Trend Height
m
Period
s
Dir
26/11:30pm 25.9 SE 25 29 1011.4 - - - - - - - - -
26/11:00pm 25.8 SE 29 35 1011.6 - - - - - - - - -
26/10:30pm 25.3 SE 23 31 1011.7 - - - - - - - - -
26/10:00pm 26.2 SE 23 28 1012.0 - - - - - - - - -
26/09:30pm 25.9 SE 24 28 1012.1 - - - - - - - - -
26/09:00pm 27.6 SE 24 27 1011.8 - - - - - - - - -
26/08:30pm 27.5 SE 24 29 1011.5 - - - - - - - - -
26/08:00pm 27.5 SE 25 28 1011.0 - - - - - - - - -
26/07:30pm 27.3 ESE 25 29 1010.7 - - - - - - - - -
26/07:00pm 27.3 SE 24 27 1010.4 - - - - - - - - -
26/06:30pm 27.3 SE 22 25 1010.4 - - - - - - - - -
26/06:00pm 27.3 SE 23 28 1010.2 - - - - - - - - -
26/05:30pm 27.3 SE 24 28 1009.8 - - - - - - - - -
26/05:00pm 27.3 SE 24 27 1009.5 - - - - - - - - -
26/04:30pm 27.3 SE 22 26 1009.4 - - - - - - - - -
26/04:00pm 27.3 SE 23 27 1009.3 - - - - - - - - -
26/03:30pm 27.4 SE 25 28 1009.2 - - - - - - - - -
26/03:00pm 27.4 SE 25 29 1009.0 - - - - - - - - -
26/02:30pm 27.6 SE 24 28 1009.4 - - - - - - - - -
26/02:00pm 27.6 SE 23 27 1009.6 - - - - - - - - -
26/01:30pm 27.4 SE 24 27 1009.6 - - - - - - - - -
26/01:00pm 27.6 SE 23 27 1010.0 - - - - - - - - -
26/12:30pm 27.5 SE 23 26 1010.2 - - - - - - - - -
26/12:00pm 27.3 SE 22 25 1010.6 - - - - - - - - -
26/11:30am 27.1 SE 20 23 1011.2 - - - - - - - - -
26/11:00am 27.0 SSE 19 22 1011.5 - - - - - - - - -
26/10:30am 26.8 SSE 19 22 1012.1 - - - - - - - - -
26/10:00am 26.6 SE 19 23 1012.0 - - - - - - - - -
26/09:30am 26.5 SE 18 21 1012.0 - - - - - - - - -
26/09:00am 26.4 SE 19 22 1012.2 - - - - - - - - -
26/08:30am 26.5 SE 21 25 1012.0 - - - - - - - - -
26/08:00am 26.3 SE 21 23 1011.8 - - - - - - - - -
26/07:30am 26.1 SE 23 28 1011.6 - - - - - - - - -
26/07:00am 26.0 SSE 22 24 1011.3 - - - - - - - - -
26/06:30am 25.9 SE 20 24 1011.0 - - - - - - - - -
26/06:00am 26.4 SE 20 25 1010.9 - - - - - - - - -
26/05:30am 25.9 ESE 17 24 1010.5 - - - - - - - - -
26/05:18am 25.0 SE 17 21 1010.3 - - - - - - - - -
26/05:00am 26.7 SE 20 23 1010.1 - - - - - - - - -
26/04:30am 25.9 SE 20 23 1009.9 - - - - - - - - -
26/04:00am 25.8 SE 20 22 1009.8 - - - - - - - - -
26/03:30am 26.2 SE 23 27 1009.5 - - - - - - - - -
26/03:00am 25.4 SE 19 23 1009.6 - - - - - - - - -
26/02:30am 25.6 SSE 24 27 1009.8 - - - - - - - - -
26/02:00am 25.8 SSE 21 25 1010.4 - - - - - - - - -
26/01:30am 25.8 SSE 22 26 1010.9 - - - - - - - - -
26/01:00am 25.8 SSE 24 28 1011.1 - - - - - - - - -
26/12:30am 25.7 SSE 23 28 1011.4 - - - - - - - - -
26/12:00am 25.9 SSE 25 29 1011.8 - - - - - - - - -
 
Date/Time
EST
Temp
°C
Wind Pressure Rain since
9am
mm
Weather Cloud Vis
km
Sea
Height
m
Swell
Dir  Spd
kts
Gust
kts
hPa Trend Height
m
Period
s
Dir
25/11:30pm 26.0 SSE 23 27 1012.3 - - - - - - - - -
25/11:00pm 25.9 SSE 22 25 1012.5 - - - - - - - - -
25/10:30pm 26.1 SSE 22 26 1012.5 - - - - - - - - -
25/10:00pm 26.6 SE 21 26 1012.6 - - - - - - - - -
25/09:30pm 27.3 SE 22 25 1012.5 - - - - - - - - -
25/09:00pm 27.2 SE 21 25 1012.5 - - - - - - - - -
25/08:30pm 27.2 SE 21 24 1012.3 - - - - - - - - -
25/08:00pm 27.2 ESE 20 23 1012.1 - - - - - - - - -
25/07:30pm 27.4 SE 21 25 1011.7 - - - - - - - - -
25/07:00pm 27.3 SE 20 23 1011.3 - - - - - - - - -
25/06:30pm 27.2 ESE 20 24 1011.2 - - - - - - - - -
25/06:00pm 27.3 SE 20 23 1011.2 - - - - - - - - -
25/05:30pm 27.4 ESE 19 22 1011.1 - - - - - - - - -
25/05:00pm 27.3 ESE 20 23 1010.7 - - - - - - - - -
25/04:30pm 27.2 SE 20 22 1010.5 - - - - - - - - -
25/04:00pm 26.9 SE 19 22 1010.4 - - - - - - - - -
25/03:30pm 27.0 SE 18 22 1010.5 - - - - - - - - -
25/03:00pm 26.7 SE 19 22 1010.6 - - - - - - - - -
25/02:30pm 27.1 SE 19 23 1010.7 - - - - - - - - -
25/02:00pm 27.4 SE 18 21 1011.0 - - - - - - - - -
25/01:30pm 27.4 SE 19 21 1011.2 - - - - - - - - -
25/01:00pm 27.6 SE 18 21 1011.5 - - - - - - - - -
25/12:30pm 27.2 SE 18 21 1011.7 - - - - - - - - -
25/12:00pm 27.4 SE 19 24 1012.2 - - - - - - - - -
25/11:30am 27.1 SE 19 21 1012.5 - - - - - - - - -
25/11:00am 26.9 SSE 20 23 1012.9 - - - - - - - - -
25/10:30am 26.8 SE 19 22 1012.9 - - - - - - - - -
25/10:00am 26.4 SSE 19 21 1012.9 - - - - - - - - -
25/09:30am 26.4 SSE 20 23 1012.9 - - - - - - - - -
25/09:00am 26.0 SSE 18 21 1012.9 - - - - - - - - -
25/08:30am 26.0 SSE 20 23 1012.8 - - - - - - - - -
25/08:00am 25.8 SSE 20 23 1012.4 - - - - - - - - -
25/07:52am 25.9 SSE 20 24 1012.2 - - - - - - - - -
25/07:30am 27.2 ESE 19 22 1011.9 - - - - - - - - -
25/07:00am 27.0 ESE 20 23 1011.6 - - - - - - - - -
25/06:30am 26.8 ESE 20 22 1011.4 - - - - - - - - -
25/06:00am 26.8 ESE 20 24 1011.1 - - - - - - - - -
25/05:30am 26.9 ESE 20 23 1010.9 - - - - - - - - -
25/05:00am 26.6 ESE 20 22 1010.8 - - - - - - - - -
25/04:30am 26.7 ESE 20 23 1010.8 - - - - - - - - -
25/04:00am 26.8 ESE 21 23 1010.8 - - - - - - - - -
25/03:30am 26.9 SE 19 22 1010.8 - - - - - - - - -
25/03:00am 26.9 ESE 19 23 1010.7 - - - - - - - - -
25/02:30am 26.9 ESE 20 22 1010.9 - - - - - - - - -
25/02:00am 27.0 ESE 19 22 1011.1 - - - - - - - - -
25/01:30am 27.0 ESE 19 21 1011.3 - - - - - - - - -
25/01:00am 26.8 ESE 18 21 1011.6 - - - - - - - - -
25/12:30am 27.1 ESE 18 20 1012.0 - - - - - - - - -
25/12:00am 27.3 ESE 17 19 1012.3 - - - - - - - - -
 
Date/Time
EST
Temp
°C
Wind Pressure Rain since
9am
mm
Weather Cloud Vis
km
Sea
Height
m
Swell
Dir  Spd
kts
Gust
kts
hPa Trend Height
m
Period
s
Dir
24/11:30pm 27.4 ESE 17 19 1012.4 - - - - - - - - -
24/11:00pm 27.4 ESE 16 18 1012.7 - - - - - - - - -
24/10:30pm 27.2 ESE 15 17 1012.9 - - - - - - - - -
24/10:00pm 27.3 ESE 15 17 1012.8 - - - - - - - - -
24/09:30pm 26.9 ESE 14 16 1012.7 - - - - - - - - -
24/09:00pm 27.4 ESE 15 17 1012.6 - - - - - - - - -
24/08:30pm 27.3 ESE 14 16 1012.6 - - - - - - - - -
24/08:00pm 27.4 ESE 14 17 1012.3 - - - - - - - - -
24/07:30pm 27.4 ESE 15 17 1012.0 - - - - - - - - -
24/07:00pm 27.4 ESE 14 16 1011.8 - - - - - - - - -
24/06:30pm 27.4 ESE 14 16 1011.5 - - - - - - - - -
24/06:00pm 27.4 ESE 13 15 1011.4 - - - - - - - - -
24/05:30pm 27.5 ESE 12 14 1011.3 - - - - - - - - -
24/05:00pm 27.7 ESE 12 13 1011.0 - - - - - - - - -
24/04:30pm 27.8 ESE 12 13 1010.7 - - - - - - - - -
24/04:00pm 27.9 ESE 12 14 1010.8 - - - - - - - - -
24/03:30pm 27.8 ESE 13 15 1010.6 - - - - - - - - -
24/03:00pm 28.1 ESE 14 15 1010.7 - - - - - - - - -
24/02:30pm 28.1 ESE 13 15 1011.0 - - - - - - - - -
24/02:00pm 28.2 ESE 12 13 1011.3 - - - - - - - - -
24/01:30pm 28.5 ESE 11 12 1011.7 - - - - - - - - -
24/01:00pm 28.7 SE 9 11 1012.1 - - - - - - - - -
24/12:30pm 28.3 ESE 9 11 1012.4 - - - - - - - - -
24/12:00pm 27.6 SE 8 10 1012.9 - - - - - - - - -
24/11:30am 27.6 SE 9 10 1013.3 - - - - - - - - -
24/11:00am 27.1 SE 9 11 1013.9 - - - - - - - - -
24/10:30am 27.0 SE 9 11 1014.0 - - - - - - - - -
24/10:00am 26.4 SE 12 13 1014.1 - - - - - - - - -
24/09:30am 26.2 SE 13 16 1014.1 - - - - - - - - -
24/09:00am 26.1 SSE 15 17 1014.1 - - - - - - - - -
24/08:30am 26.0 SSE 14 15 1013.8 - - - - - - - - -
24/08:00am 26.5 SSE 13 15 1013.4 - - - - - - - - -
24/07:30am 26.6 SE 12 14 1013.2 - - - - - - - - -
24/07:00am 26.2 SE 13 15 1013.0 - - - - - - - - -

Other Formats:

Comma delimited format used in spreadsheet applications
http://www.bom.gov.au/fwo/IDQ60701/IDQ60701.94378.axf

JavaScript Object Notation format (JSON) in row-major order
http://www.bom.gov.au/fwo/IDQ60701/IDQ60701.94378.json